sensor_id;sensor_type;location;lat;lon;timestamp;pressure;altitude;pressure_sealevel;temperature
71897;BMP280;59767;51.344;12.362;2023-01-28T00:02:46;159161.72;;;2.13
71897;BMP280;59767;51.344;12.362;2023-01-28T00:05:51;159160.44;;;2.13
71897;BMP280;59767;51.344;12.362;2023-01-28T00:08:57;159144.81;;;2.07
71897;BMP280;59767;51.344;12.362;2023-01-28T00:12:01;159166.94;;;2.15
71897;BMP280;59767;51.344;12.362;2023-01-28T00:15:05;159173.50;;;2.18
71897;BMP280;59767;51.344;12.362;2023-01-28T00:18:11;159165.63;;;2.15
71897;BMP280;59767;51.344;12.362;2023-01-28T00:21:15;159176.06;;;2.19
71897;BMP280;59767;51.344;12.362;2023-01-28T00:24:19;159148.72;;;2.08
71897;BMP280;59767;51.344;12.362;2023-01-28T00:27:23;159148.72;;;2.08
71897;BMP280;59767;51.344;12.362;2023-01-28T00:30:27;159146.09;;;2.07
71897;BMP280;59767;51.344;12.362;2023-01-28T00:33:31;159169.56;;;2.16
71897;BMP280;59767;51.344;12.362;2023-01-28T00:36:35;159159.13;;;2.12
71897;BMP280;59767;51.344;12.362;2023-01-28T00:39:42;159157.81;;;2.12
71897;BMP280;59767;51.344;12.362;2023-01-28T00:42:46;159164.34;;;2.14
71897;BMP280;59767;51.344;12.362;2023-01-28T00:45:50;159164.34;;;2.14
71897;BMP280;59767;51.344;12.362;2023-01-28T00:48:54;159161.72;;;2.13
71897;BMP280;59767;51.344;12.362;2023-01-28T00:51:58;159155.22;;;2.11
71897;BMP280;59767;51.344;12.362;2023-01-28T00:55:03;159142.19;;;2.06
71897;BMP280;59767;51.344;12.362;2023-01-28T00:58:07;159146.09;;;2.07
71897;BMP280;59767;51.344;12.362;2023-01-28T01:01:14;159156.53;;;2.11
71897;BMP280;59767;51.344;12.362;2023-01-28T01:04:19;159165.63;;;2.15
71897;BMP280;59767;51.344;12.362;2023-01-28T01:07:30;159138.28;;;2.04
71897;BMP280;59767;51.344;12.362;2023-01-28T01:10:46;159146.09;;;2.07
71897;BMP280;59767;51.344;12.362;2023-01-28T01:13:52;159140.88;;;2.05
71897;BMP280;59767;51.344;12.362;2023-01-28T01:16:57;159169.56;;;2.16
71897;BMP280;59767;51.344;12.362;2023-01-28T01:20:01;159148.72;;;2.08
71897;BMP280;59767;51.344;12.362;2023-01-28T01:23:06;159142.19;;;2.06
71897;BMP280;59767;51.344;12.362;2023-01-28T01:26:10;159136.94;;;2.04
71897;BMP280;59767;51.344;12.362;2023-01-28T01:29:14;159135.69;;;2.03
71897;BMP280;59767;51.344;12.362;2023-01-28T01:32:18;159140.88;;;2.05
71897;BMP280;59767;51.344;12.362;2023-01-28T01:35:23;159135.69;;;2.03
71897;BMP280;59767;51.344;12.362;2023-01-28T01:38:27;159121.34;;;1.98
71897;BMP280;59767;51.344;12.362;2023-01-28T01:41:32;159135.69;;;2.03
71897;BMP280;59767;51.344;12.362;2023-01-28T01:45:12;159122.66;;;1.98
71897;BMP280;59767;51.344;12.362;2023-01-28T01:48:21;159135.69;;;2.03
71897;BMP280;59767;51.344;12.362;2023-01-28T01:51:29;159151.31;;;2.09
71897;BMP280;59767;51.344;12.362;2023-01-28T01:54:36;159127.88;;;2.00
71897;BMP280;59767;51.344;12.362;2023-01-28T01:57:42;159109.63;;;1.93
71897;BMP280;59767;51.344;12.362;2023-01-28T02:00:47;159114.84;;;1.95
71897;BMP280;59767;51.344;12.362;2023-01-28T02:04:05;159114.84;;;1.95
71897;BMP280;59767;51.344;12.362;2023-01-28T02:07:14;159101.81;;;1.90
71897;BMP280;59767;51.344;12.362;2023-01-28T02:10:18;159090.06;;;1.86
71897;BMP280;59767;51.344;12.362;2023-01-28T02:13:27;159087.44;;;1.85
71897;BMP280;59767;51.344;12.362;2023-01-28T02:16:32;159112.19;;;1.94
71897;BMP280;59767;51.344;12.362;2023-01-28T02:19:41;159114.84;;;1.95
71897;BMP280;59767;51.344;12.362;2023-01-28T02:23:06;159084.91;;;1.84
71897;BMP280;59767;51.344;12.362;2023-01-28T02:26:49;159095.31;;;1.88
71897;BMP280;59767;51.344;12.362;2023-01-28T02:30:05;159077.09;;;1.81
71897;BMP280;59767;51.344;12.362;2023-01-28T02:33:15;159073.19;;;1.79
71897;BMP280;59767;51.344;12.362;2023-01-28T02:39:46;159056.25;;;1.73
71897;BMP280;59767;51.344;12.362;2023-01-28T02:42:51;159073.19;;;1.79
71897;BMP280;59767;51.344;12.362;2023-01-28T02:45:55;159067.97;;;1.77
71897;BMP280;59767;51.344;12.362;2023-01-28T02:49:27;159066.66;;;1.77
71897;BMP280;59767;51.344;12.362;2023-01-28T02:56:05;159054.94;;;1.72
71897;BMP280;59767;51.344;12.362;2023-01-28T02:59:27;159036.72;;;1.65
71897;BMP280;59767;51.344;12.362;2023-01-28T03:02:49;159053.66;;;1.72
71897;BMP280;59767;51.344;12.362;2023-01-28T03:05:58;159035.41;;;1.64
71897;BMP280;59767;51.344;12.362;2023-01-28T03:09:09;159048.44;;;1.70
71897;BMP280;59767;51.344;12.362;2023-01-28T03:12:27;159015.88;;;1.57
71897;BMP280;59767;51.344;12.362;2023-01-28T03:15:50;159001.53;;;1.51
71897;BMP280;59767;51.344;12.362;2023-01-28T03:19:16;158993.72;;;1.48
71897;BMP280;59767;51.344;12.362;2023-01-28T03:22:40;158958.56;;;1.35
71897;BMP280;59767;51.344;12.362;2023-01-28T03:26:07;158982.00;;;1.44
71897;BMP280;59767;51.344;12.362;2023-01-28T03:29:30;158965.06;;;1.37
71897;BMP280;59767;51.344;12.362;2023-01-28T03:32:54;158971.56;;;1.40
71897;BMP280;59767;51.344;12.362;2023-01-28T03:36:18;158991.13;;;1.47
71897;BMP280;59767;51.344;12.362;2023-01-28T03:39:40;158992.41;;;1.48
71897;BMP280;59767;51.344;12.362;2023-01-28T03:42:44;159001.53;;;1.51
71897;BMP280;59767;51.344;12.362;2023-01-28T03:45:49;159005.44;;;1.53
71897;BMP280;59767;51.344;12.362;2023-01-28T03:48:56;159002.84;;;1.52
71897;BMP280;59767;51.344;12.362;2023-01-28T03:52:00;159000.25;;;1.51
71897;BMP280;59767;51.344;12.362;2023-01-28T03:55:05;158996.34;;;1.49
71897;BMP280;59767;51.344;12.362;2023-01-28T03:58:18;159000.25;;;1.51
71897;BMP280;59767;51.344;12.362;2023-01-28T04:01:22;158987.22;;;1.46
71897;BMP280;59767;51.344;12.362;2023-01-28T04:04:29;158995.03;;;1.49
71897;BMP280;59767;51.344;12.362;2023-01-28T04:07:35;159002.84;;;1.52
71897;BMP280;59767;51.344;12.362;2023-01-28T04:10:41;158984.59;;;1.45
71897;BMP280;59767;51.344;12.362;2023-01-28T04:13:47;158985.91;;;1.45
71897;BMP280;59767;51.344;12.362;2023-01-28T04:16:51;158987.22;;;1.46
71897;BMP280;59767;51.344;12.362;2023-01-28T04:19:57;158998.94;;;1.50
71897;BMP280;59767;51.344;12.362;2023-01-28T04:23:01;158991.13;;;1.47
71897;BMP280;59767;51.344;12.362;2023-01-28T04:26:05;159009.34;;;1.54
71897;BMP280;59767;51.344;12.362;2023-01-28T04:29:09;159023.69;;;1.60
71897;BMP280;59767;51.344;12.362;2023-01-28T04:32:13;159008.06;;;1.54
71897;BMP280;59767;51.344;12.362;2023-01-28T04:35:19;158989.81;;;1.47
71897;BMP280;59767;51.344;12.362;2023-01-28T04:38:23;158985.91;;;1.45
71897;BMP280;59767;51.344;12.362;2023-01-28T04:41:27;158989.81;;;1.47
71897;BMP280;59767;51.344;12.362;2023-01-28T04:44:31;158992.41;;;1.48
71897;BMP280;59767;51.344;12.362;2023-01-28T04:47:35;158998.94;;;1.50
71897;BMP280;59767;51.344;12.362;2023-01-28T04:50:39;158989.81;;;1.47
71897;BMP280;59767;51.344;12.362;2023-01-28T04:53:43;158984.59;;;1.45
71897;BMP280;59767;51.344;12.362;2023-01-28T04:56:48;158980.69;;;1.43
71897;BMP280;59767;51.344;12.362;2023-01-28T04:59:52;158970.28;;;1.39
71897;BMP280;59767;51.344;12.362;2023-01-28T05:02:56;158979.41;;;1.43
71897;BMP280;59767;51.344;12.362;2023-01-28T05:06:00;158970.28;;;1.39
71897;BMP280;59767;51.344;12.362;2023-01-28T05:09:04;158968.97;;;1.39
71897;BMP280;59767;51.344;12.362;2023-01-28T05:12:08;158961.16;;;1.36
71897;BMP280;59767;51.344;12.362;2023-01-28T05:15:14;158968.97;;;1.39
71897;BMP280;59767;51.344;12.362;2023-01-28T05:18:19;158970.28;;;1.39
71897;BMP280;59767;51.344;12.362;2023-01-28T05:21:23;158961.16;;;1.36
71897;BMP280;59767;51.344;12.362;2023-01-28T05:24:27;158946.84;;;1.30
71897;BMP280;59767;51.344;12.362;2023-01-28T05:27:31;158949.50;;;1.31
71897;BMP280;59767;51.344;12.362;2023-01-28T05:30:37;158950.81;;;1.32
71897;BMP280;59767;51.344;12.362;2023-01-28T05:33:41;158952.03;;;1.32
71897;BMP280;59767;51.344;12.362;2023-01-28T05:36:45;158948.16;;;1.31
71897;BMP280;59767;51.344;12.362;2023-01-28T05:39:49;158950.81;;;1.32
71897;BMP280;59767;51.344;12.362;2023-01-28T05:42:54;158963.75;;;1.37
71897;BMP280;59767;51.344;12.362;2023-01-28T05:45:58;158952.03;;;1.32
71897;BMP280;59767;51.344;12.362;2023-01-28T05:49:02;158936.47;;;1.26
71897;BMP280;59767;51.344;12.362;2023-01-28T05:52:07;158949.50;;;1.31
71897;BMP280;59767;51.344;12.362;2023-01-28T05:55:11;158922.13;;;1.21
71897;BMP280;59767;51.344;12.362;2023-01-28T05:58:15;158914.31;;;1.18
71897;BMP280;59767;51.344;12.362;2023-01-28T06:01:19;158907.81;;;1.15
71897;BMP280;59767;51.344;12.362;2023-01-28T06:04:23;158926.06;;;1.22
71897;BMP280;59767;51.344;12.362;2023-01-28T06:07:27;158916.94;;;1.19
71897;BMP280;59767;51.344;12.362;2023-01-28T06:10:31;158902.59;;;1.13
71897;BMP280;59767;51.344;12.362;2023-01-28T06:13:35;158888.28;;;1.08
71897;BMP280;59767;51.344;12.362;2023-01-28T06:16:40;158902.59;;;1.13
71897;BMP280;59767;51.344;12.362;2023-01-28T06:19:44;158911.72;;;1.17
71897;BMP280;59767;51.344;12.362;2023-01-28T06:22:51;158927.34;;;1.23
71897;BMP280;59767;51.344;12.362;2023-01-28T06:25:56;158906.50;;;1.15
71897;BMP280;59767;51.344;12.362;2023-01-28T06:29:00;158894.78;;;1.10
71897;BMP280;59767;51.344;12.362;2023-01-28T06:32:05;158901.34;;;1.13
71897;BMP280;59767;51.344;12.362;2023-01-28T06:35:09;158886.97;;;1.07
71897;BMP280;59767;51.344;12.362;2023-01-28T06:38:14;158873.94;;;1.02
71897;BMP280;59767;51.344;12.362;2023-01-28T06:41:18;158877.84;;;1.04
71897;BMP280;59767;51.344;12.362;2023-01-28T06:44:22;158884.41;;;1.06
71897;BMP280;59767;51.344;12.362;2023-01-28T06:47:27;158883.09;;;1.06
71897;BMP280;59767;51.344;12.362;2023-01-28T06:50:31;158883.09;;;1.06
71897;BMP280;59767;51.344;12.362;2023-01-28T06:53:34;158885.66;;;1.07
71897;BMP280;59767;51.344;12.362;2023-01-28T06:56:39;158905.22;;;1.14
71897;BMP280;59767;51.344;12.362;2023-01-28T06:59:43;158898.69;;;1.12
71897;BMP280;59767;51.344;12.362;2023-01-28T07:02:47;158876.59;;;1.03
71897;BMP280;59767;51.344;12.362;2023-01-28T07:05:51;158876.59;;;1.03
71897;BMP280;59767;51.344;12.362;2023-01-28T07:08:55;158875.28;;;1.03
71897;BMP280;59767;51.344;12.362;2023-01-28T07:11:59;158889.56;;;1.08
71897;BMP280;59767;51.344;12.362;2023-01-28T07:15:03;158897.38;;;1.11
71897;BMP280;59767;51.344;12.362;2023-01-28T07:18:08;158901.34;;;1.13
71897;BMP280;59767;51.344;12.362;2023-01-28T07:21:12;158926.06;;;1.22
71897;BMP280;59767;51.344;12.362;2023-01-28T07:24:16;158911.72;;;1.17
71897;BMP280;59767;51.344;12.362;2023-01-28T07:27:23;158892.22;;;1.09
71897;BMP280;59767;51.344;12.362;2023-01-28T07:30:27;158913.03;;;1.17
71897;BMP280;59767;51.344;12.362;2023-01-28T07:33:32;158907.81;;;1.15
71897;BMP280;59767;51.344;12.362;2023-01-28T07:36:36;158916.94;;;1.19
71897;BMP280;59767;51.344;12.362;2023-01-28T07:39:40;158901.34;;;1.13
71897;BMP280;59767;51.344;12.362;2023-01-28T07:42:43;158922.13;;;1.21
71897;BMP280;59767;51.344;12.362;2023-01-28T07:45:47;158924.75;;;1.22
71897;BMP280;59767;51.344;12.362;2023-01-28T07:48:51;158942.97;;;1.29
71897;BMP280;59767;51.344;12.362;2023-01-28T07:51:55;158923.44;;;1.21
71897;BMP280;59767;51.344;12.362;2023-01-28T07:54:59;158927.34;;;1.23
71897;BMP280;59767;51.344;12.362;2023-01-28T07:58:06;158896.09;;;1.11
71897;BMP280;59767;51.344;12.362;2023-01-28T08:01:11;158900.00;;;1.12
71897;BMP280;59767;51.344;12.362;2023-01-28T08:04:15;158911.72;;;1.17
71897;BMP280;59767;51.344;12.362;2023-01-28T08:07:19;158918.22;;;1.19
71897;BMP280;59767;51.344;12.362;2023-01-28T08:10:24;158916.94;;;1.19
71897;BMP280;59767;51.344;12.362;2023-01-28T08:13:28;158942.97;;;1.29
71897;BMP280;59767;51.344;12.362;2023-01-28T08:16:32;158944.28;;;1.29
71897;BMP280;59767;51.344;12.362;2023-01-28T08:19:36;158941.69;;;1.28
71897;BMP280;59767;51.344;12.362;2023-01-28T08:22:40;158967.66;;;1.38
71897;BMP280;59767;51.344;12.362;2023-01-28T08:25:45;158958.56;;;1.35
71897;BMP280;59767;51.344;12.362;2023-01-28T08:28:49;158946.84;;;1.30
71897;BMP280;59767;51.344;12.362;2023-01-28T08:31:54;158954.66;;;1.33
71897;BMP280;59767;51.344;12.362;2023-01-28T08:34:59;158941.69;;;1.28
71897;BMP280;59767;51.344;12.362;2023-01-28T08:38:04;158954.66;;;1.33
71897;BMP280;59767;51.344;12.362;2023-01-28T08:41:09;158966.38;;;1.38
71897;BMP280;59767;51.344;12.362;2023-01-28T08:44:13;158968.97;;;1.39
71897;BMP280;59767;51.344;12.362;2023-01-28T08:47:17;158906.50;;;1.15
71897;BMP280;59767;51.344;12.362;2023-01-28T08:50:22;158894.78;;;1.10
71897;BMP280;59767;51.344;12.362;2023-01-28T08:53:27;158927.34;;;1.23
71897;BMP280;59767;51.344;12.362;2023-01-28T08:56:31;158965.06;;;1.37
71897;BMP280;59767;51.344;12.362;2023-01-28T08:59:35;158946.84;;;1.30
71897;BMP280;59767;51.344;12.362;2023-01-28T09:02:40;158946.84;;;1.30
71897;BMP280;59767;51.344;12.362;2023-01-28T09:05:45;158945.59;;;1.30
71897;BMP280;59767;51.344;12.362;2023-01-28T09:08:49;158944.28;;;1.29
71897;BMP280;59767;51.344;12.362;2023-01-28T09:11:53;158944.28;;;1.29
71897;BMP280;59767;51.344;12.362;2023-01-28T09:14:57;158984.59;;;1.45
71897;BMP280;59767;51.344;12.362;2023-01-28T09:18:02;158980.69;;;1.43
71897;BMP280;59767;51.344;12.362;2023-01-28T09:21:07;158966.38;;;1.38
71897;BMP280;59767;51.344;12.362;2023-01-28T09:24:11;158950.81;;;1.32
71897;BMP280;59767;51.344;12.362;2023-01-28T09:27:15;158958.56;;;1.35
71897;BMP280;59767;51.344;12.362;2023-01-28T09:30:19;158965.06;;;1.37
71897;BMP280;59767;51.344;12.362;2023-01-28T09:33:23;158966.38;;;1.38
71897;BMP280;59767;51.344;12.362;2023-01-28T09:36:28;158971.56;;;1.40
71897;BMP280;59767;51.344;12.362;2023-01-28T09:39:32;158982.00;;;1.44
71897;BMP280;59767;51.344;12.362;2023-01-28T09:43:00;158974.19;;;1.41
71897;BMP280;59767;51.344;12.362;2023-01-28T09:46:11;158975.50;;;1.41
71897;BMP280;59767;51.344;12.362;2023-01-28T09:49:20;158976.78;;;1.42
71897;BMP280;59767;51.344;12.362;2023-01-28T09:52:29;158983.31;;;1.44
71897;BMP280;59767;51.344;12.362;2023-01-28T09:55:38;158996.34;;;1.49
71897;BMP280;59767;51.344;12.362;2023-01-28T09:58:43;159015.88;;;1.57
71897;BMP280;59767;51.344;12.362;2023-01-28T10:01:53;159028.91;;;1.62
71897;BMP280;59767;51.344;12.362;2023-01-28T10:15:54;159013.25;;;1.56
71897;BMP280;59767;51.344;12.362;2023-01-28T10:19:10;159022.38;;;1.59
71897;BMP280;59767;51.344;12.362;2023-01-28T10:22:29;159028.91;;;1.62
71897;BMP280;59767;51.344;12.362;2023-01-28T10:25:34;159038.00;;;1.65
71897;BMP280;59767;51.344;12.362;2023-01-28T10:28:39;159028.91;;;1.62
71897;BMP280;59767;51.344;12.362;2023-01-28T10:32:22;159000.25;;;1.51
71897;BMP280;59767;51.344;12.362;2023-01-28T10:35:34;159000.25;;;1.51
71897;BMP280;59767;51.344;12.362;2023-01-28T10:38:40;159011.97;;;1.55
71897;BMP280;59767;51.344;12.362;2023-01-28T10:41:44;159011.97;;;1.55
71897;BMP280;59767;51.344;12.362;2023-01-28T10:45:19;159028.91;;;1.62
71897;BMP280;59767;51.344;12.362;2023-01-28T10:52:10;159056.25;;;1.73
71897;BMP280;59767;51.344;12.362;2023-01-28T10:55:15;159069.28;;;1.78
71897;BMP280;59767;51.344;12.362;2023-01-28T10:58:21;159104.38;;;1.91
71897;BMP280;59767;51.344;12.362;2023-01-28T11:01:44;159092.66;;;1.87
71897;BMP280;59767;51.344;12.362;2023-01-28T11:05:00;159090.06;;;1.86
71897;BMP280;59767;51.344;12.362;2023-01-28T11:08:15;159074.50;;;1.80
71897;BMP280;59767;51.344;12.362;2023-01-28T11:11:25;159091.34;;;1.86
71897;BMP280;59767;51.344;12.362;2023-01-28T11:14:29;159116.09;;;1.96
71897;BMP280;59767;51.344;12.362;2023-01-28T11:17:35;159140.88;;;2.05
71897;BMP280;59767;51.344;12.362;2023-01-28T11:20:42;159173.50;;;2.18
71897;BMP280;59767;51.344;12.362;2023-01-28T11:23:54;159208.59;;;2.31
71897;BMP280;59767;51.344;12.362;2023-01-28T11:27:14;159196.94;;;2.27
71897;BMP280;59767;51.344;12.362;2023-01-28T11:30:26;159174.75;;;2.18
71897;BMP280;59767;51.344;12.362;2023-01-28T11:33:38;159163.03;;;2.14
71897;BMP280;59767;51.344;12.362;2023-01-28T11:36:51;159198.19;;;2.27
71897;BMP280;59767;51.344;12.362;2023-01-28T11:40:17;159170.84;;;2.17
71897;BMP280;59767;51.344;12.362;2023-01-28T11:43:27;159166.94;;;2.15
71897;BMP280;59767;51.344;12.362;2023-01-28T11:53:16;159157.81;;;2.12
71897;BMP280;59767;51.344;12.362;2023-01-28T11:56:51;159146.09;;;2.07
71897;BMP280;59767;51.344;12.362;2023-01-28T12:03:22;159182.56;;;2.21
71897;BMP280;59767;51.344;12.362;2023-01-28T12:06:41;159179.97;;;2.20
71897;BMP280;59767;51.344;12.362;2023-01-28T12:10:18;159153.91;;;2.10
71897;BMP280;59767;51.344;12.362;2023-01-28T12:17:20;159136.94;;;2.04
71897;BMP280;59767;51.344;12.362;2023-01-28T12:20:36;159153.91;;;2.10
71897;BMP280;59767;51.344;12.362;2023-01-28T12:27:08;159117.41;;;1.96
71897;BMP280;59767;51.344;12.362;2023-01-28T12:47:20;159125.25;;;1.99
71897;BMP280;59767;51.344;12.362;2023-01-28T12:50:29;159118.75;;;1.97
71897;BMP280;59767;51.344;12.362;2023-01-28T12:53:39;159123.97;;;1.99
71897;BMP280;59767;51.344;12.362;2023-01-28T12:56:50;159118.75;;;1.97
71897;BMP280;59767;51.344;12.362;2023-01-28T13:03:20;159086.22;;;1.84
71897;BMP280;59767;51.344;12.362;2023-01-28T13:09:37;159056.25;;;1.73
71897;BMP280;59767;51.344;12.362;2023-01-28T13:12:47;159052.34;;;1.71
71897;BMP280;59767;51.344;12.362;2023-01-28T13:15:51;159083.59;;;1.83
71897;BMP280;59767;51.344;12.362;2023-01-28T13:19:08;159062.75;;;1.75
71897;BMP280;59767;51.344;12.362;2023-01-28T13:25:32;159051.03;;;1.71
71897;BMP280;59767;51.344;12.362;2023-01-28T13:28:36;159054.94;;;1.72
71897;BMP280;59767;51.344;12.362;2023-01-28T13:31:44;159064.06;;;1.76
71897;BMP280;59767;51.344;12.362;2023-01-28T13:35:03;159054.94;;;1.72
71897;BMP280;59767;51.344;12.362;2023-01-28T13:38:15;159041.88;;;1.67
71897;BMP280;59767;51.344;12.362;2023-01-28T13:41:19;159047.13;;;1.69
71897;BMP280;59767;51.344;12.362;2023-01-28T13:47:35;159044.53;;;1.68
71897;BMP280;59767;51.344;12.362;2023-01-28T13:50:41;159035.41;;;1.64
71897;BMP280;59767;51.344;12.362;2023-01-28T13:53:53;159017.16;;;1.57
71897;BMP280;59767;51.344;12.362;2023-01-28T14:00:20;159008.06;;;1.54
71897;BMP280;59767;51.344;12.362;2023-01-28T14:04:07;159027.59;;;1.61
71897;BMP280;59767;51.344;12.362;2023-01-28T14:11:03;159065.38;;;1.76
71897;BMP280;59767;51.344;12.362;2023-01-28T14:17:41;159090.06;;;1.86
71897;BMP280;59767;51.344;12.362;2023-01-28T14:20:46;159107.03;;;1.92
71897;BMP280;59767;51.344;12.362;2023-01-28T14:23:53;159107.03;;;1.92
71897;BMP280;59767;51.344;12.362;2023-01-28T14:27:17;159127.88;;;2.00
71897;BMP280;59767;51.344;12.362;2023-01-28T14:30:47;159148.72;;;2.08
71897;BMP280;59767;51.344;12.362;2023-01-28T14:33:59;159113.53;;;1.95
71897;BMP280;59767;51.344;12.362;2023-01-28T14:37:10;159118.75;;;1.97
71897;BMP280;59767;51.344;12.362;2023-01-28T14:40:15;159101.81;;;1.90
71897;BMP280;59767;51.344;12.362;2023-01-28T14:43:22;159107.03;;;1.92
71897;BMP280;59767;51.344;12.362;2023-01-28T14:59:55;159071.88;;;1.79
71897;BMP280;59767;51.344;12.362;2023-01-28T15:03:10;159083.59;;;1.83
71897;BMP280;59767;51.344;12.362;2023-01-28T15:06:33;159101.81;;;1.90
71897;BMP280;59767;51.344;12.362;2023-01-28T15:09:38;159054.94;;;1.72
71897;BMP280;59767;51.344;12.362;2023-01-28T15:12:49;159057.56;;;1.73
71897;BMP280;59767;51.344;12.362;2023-01-28T15:15:55;159086.22;;;1.84
71897;BMP280;59767;51.344;12.362;2023-01-28T15:19:06;159051.03;;;1.71
71897;BMP280;59767;51.344;12.362;2023-01-28T15:22:13;159040.63;;;1.67
71897;BMP280;59767;51.344;12.362;2023-01-28T15:25:23;159047.13;;;1.69
71897;BMP280;59767;51.344;12.362;2023-01-28T15:28:31;159028.91;;;1.62
71897;BMP280;59767;51.344;12.362;2023-01-28T15:31:36;158997.63;;;1.50
71897;BMP280;59767;51.344;12.362;2023-01-28T15:34:46;159013.25;;;1.56
71897;BMP280;59767;51.344;12.362;2023-01-28T15:37:50;159002.84;;;1.52
71897;BMP280;59767;51.344;12.362;2023-01-28T15:40:56;158983.31;;;1.44
71897;BMP280;59767;51.344;12.362;2023-01-28T15:44:01;158982.00;;;1.44
71897;BMP280;59767;51.344;12.362;2023-01-28T15:50:24;158995.03;;;1.49
71897;BMP280;59767;51.344;12.362;2023-01-28T15:53:33;158971.56;;;1.40
71897;BMP280;59767;51.344;12.362;2023-01-28T15:56:38;158963.75;;;1.37
71897;BMP280;59767;51.344;12.362;2023-01-28T15:59:42;158978.09;;;1.42
71897;BMP280;59767;51.344;12.362;2023-01-28T16:02:52;158984.59;;;1.45
71897;BMP280;59767;51.344;12.362;2023-01-28T16:06:02;158954.66;;;1.33
71897;BMP280;59767;51.344;12.362;2023-01-28T16:09:30;158954.66;;;1.33
71897;BMP280;59767;51.344;12.362;2023-01-28T16:12:36;158958.56;;;1.35
71897;BMP280;59767;51.344;12.362;2023-01-28T16:15:46;158945.59;;;1.30
71897;BMP280;59767;51.344;12.362;2023-01-28T16:18:54;158946.84;;;1.30
71897;BMP280;59767;51.344;12.362;2023-01-28T16:21:59;158922.13;;;1.21
71897;BMP280;59767;51.344;12.362;2023-01-28T16:25:25;158920.84;;;1.20
71897;BMP280;59767;51.344;12.362;2023-01-28T16:28:30;158919.53;;;1.20
71897;BMP280;59767;51.344;12.362;2023-01-28T16:31:34;158935.16;;;1.26
71897;BMP280;59767;51.344;12.362;2023-01-28T16:34:38;158929.97;;;1.24
71897;BMP280;59767;51.344;12.362;2023-01-28T16:37:46;158933.88;;;1.25
71897;BMP280;59767;51.344;12.362;2023-01-28T16:40:51;158940.38;;;1.28
71897;BMP280;59767;51.344;12.362;2023-01-28T16:43:55;158922.13;;;1.21
71897;BMP280;59767;51.344;12.362;2023-01-28T16:46:59;158923.44;;;1.21
71897;BMP280;59767;51.344;12.362;2023-01-28T16:50:04;158916.94;;;1.19
71897;BMP280;59767;51.344;12.362;2023-01-28T16:53:18;158914.31;;;1.18
71897;BMP280;59767;51.344;12.362;2023-01-28T16:56:25;158937.78;;;1.27
71897;BMP280;59767;51.344;12.362;2023-01-28T16:59:48;158915.63;;;1.18
71897;BMP280;59767;51.344;12.362;2023-01-28T17:02:53;158914.31;;;1.18
71897;BMP280;59767;51.344;12.362;2023-01-28T17:05:57;158918.22;;;1.19
71897;BMP280;59767;51.344;12.362;2023-01-28T17:09:01;158924.75;;;1.22
71897;BMP280;59767;51.344;12.362;2023-01-28T17:12:05;158915.63;;;1.18
71897;BMP280;59767;51.344;12.362;2023-01-28T17:15:09;158922.13;;;1.21
71897;BMP280;59767;51.344;12.362;2023-01-28T17:18:14;158931.25;;;1.24
71897;BMP280;59767;51.344;12.362;2023-01-28T17:21:18;158920.84;;;1.20
71897;BMP280;59767;51.344;12.362;2023-01-28T17:24:22;158911.72;;;1.17
71897;BMP280;59767;51.344;12.362;2023-01-28T17:27:27;158897.38;;;1.11
71897;BMP280;59767;51.344;12.362;2023-01-28T17:30:31;158909.13;;;1.16
71897;BMP280;59767;51.344;12.362;2023-01-28T17:33:35;158896.09;;;1.11
71897;BMP280;59767;51.344;12.362;2023-01-28T17:36:39;158888.28;;;1.08
71897;BMP280;59767;51.344;12.362;2023-01-28T17:39:43;158890.88;;;1.09
71897;BMP280;59767;51.344;12.362;2023-01-28T17:42:47;158909.13;;;1.16
71897;BMP280;59767;51.344;12.362;2023-01-28T17:45:51;158928.66;;;1.23
71897;BMP280;59767;51.344;12.362;2023-01-28T17:48:55;158907.81;;;1.15
71897;BMP280;59767;51.344;12.362;2023-01-28T17:52:00;158896.09;;;1.11
71897;BMP280;59767;51.344;12.362;2023-01-28T17:55:04;158890.88;;;1.09
71897;BMP280;59767;51.344;12.362;2023-01-28T17:58:08;158901.34;;;1.13
71897;BMP280;59767;51.344;12.362;2023-01-28T18:01:12;158914.31;;;1.18
71897;BMP280;59767;51.344;12.362;2023-01-28T18:04:16;158915.63;;;1.18
71897;BMP280;59767;51.344;12.362;2023-01-28T18:07:21;158905.22;;;1.14
71897;BMP280;59767;51.344;12.362;2023-01-28T18:10:25;158920.84;;;1.20
71897;BMP280;59767;51.344;12.362;2023-01-28T18:13:29;158919.53;;;1.20
71897;BMP280;59767;51.344;12.362;2023-01-28T18:16:33;158909.13;;;1.16
71897;BMP280;59767;51.344;12.362;2023-01-28T18:19:37;158920.84;;;1.20
71897;BMP280;59767;51.344;12.362;2023-01-28T18:22:41;158909.13;;;1.16
71897;BMP280;59767;51.344;12.362;2023-01-28T18:25:45;158919.53;;;1.20
71897;BMP280;59767;51.344;12.362;2023-01-28T18:28:50;158919.53;;;1.20
71897;BMP280;59767;51.344;12.362;2023-01-28T18:31:56;158911.72;;;1.17
71897;BMP280;59767;51.344;12.362;2023-01-28T18:35:00;158916.94;;;1.19
71897;BMP280;59767;51.344;12.362;2023-01-28T18:38:05;158910.41;;;1.16
71897;BMP280;59767;51.344;12.362;2023-01-28T18:41:09;158906.50;;;1.15
71897;BMP280;59767;51.344;12.362;2023-01-28T18:44:14;158907.81;;;1.15
71897;BMP280;59767;51.344;12.362;2023-01-28T18:47:18;158900.00;;;1.12
71897;BMP280;59767;51.344;12.362;2023-01-28T18:50:22;158913.03;;;1.17
71897;BMP280;59767;51.344;12.362;2023-01-28T18:53:29;158896.09;;;1.11
71897;BMP280;59767;51.344;12.362;2023-01-28T18:56:33;158896.09;;;1.11
71897;BMP280;59767;51.344;12.362;2023-01-28T18:59:37;158884.41;;;1.06
71897;BMP280;59767;51.344;12.362;2023-01-28T19:02:41;158907.81;;;1.15
71897;BMP280;59767;51.344;12.362;2023-01-28T19:05:46;158906.50;;;1.15
71897;BMP280;59767;51.344;12.362;2023-01-28T19:08:56;158905.22;;;1.14
71897;BMP280;59767;51.344;12.362;2023-01-28T19:12:00;158901.34;;;1.13
71897;BMP280;59767;51.344;12.362;2023-01-28T19:15:05;158877.84;;;1.04
71897;BMP280;59767;51.344;12.362;2023-01-28T19:18:09;158880.50;;;1.05
71897;BMP280;59767;51.344;12.362;2023-01-28T19:21:13;158890.88;;;1.09
71897;BMP280;59767;51.344;12.362;2023-01-28T19:24:18;158877.84;;;1.04